Time;durP1;ratioP1;P1;durP2;ratioP2;P2;SDS_P1;SDS_P2;PMS_P1;PMS_P2;Temp;Humidity;BMP_temperature;BMP_pressure;BME280_temperature;BME280_humidity;BME280_pressure;Samples;Min_cycle;Max_cycle;Signal;HPM_P1;HPM_P2
2020/12/18 00:00:52;;;;;;;;;;;3.70;95.90;;;;;;4946957;29;20043;-76
2020/12/18 00:03:18;;;;;;;99.45;33.00;;;3.70;95.90;;;;;;4946620;29;19917;-76
2020/12/18 00:05:44;;;;;;;;;;;3.70;95.90;;;;;;4932682;29;20396;-76
2020/12/18 00:08:10;;;;;;;128.52;43.85;;;3.70;95.90;;;;;;4936397;29;20383;-77
2020/12/18 00:10:38;;;;;;;135.60;42.00;;;3.70;95.90;;;;;;4936707;29;20413;-76
2020/12/18 00:13:04;;;;;;;111.80;40.65;;;3.60;95.80;;;;;;4936463;29;20512;-75
2020/12/18 00:15:29;;;;;;;;;;;3.60;95.80;;;;;;4935259;29;20072;-76
2020/12/18 00:17:55;;;;;;;111.00;39.05;;;3.60;95.80;;;;;;4952786;29;20291;-77
2020/12/18 00:20:21;;;;;;;;;;;3.70;95.90;;;;;;4953819;29;20504;-78
2020/12/18 00:22:46;;;;;;;102.70;35.95;;;3.70;95.90;;;;;;4935479;29;19917;-77
2020/12/18 00:25:12;;;;;;;;;;;3.70;95.90;;;;;;4952960;29;20039;-77
2020/12/18 00:27:42;;;;;;;101.68;36.35;;;3.70;95.90;;;;;;4936380;29;20399;-77
2020/12/18 00:30:09;;;;;;;110.00;37.35;;;3.70;95.90;;;;;;4936768;29;20028;-80
2020/12/18 00:32:36;;;;;;;103.95;37.95;;;3.70;95.90;;;;;;4937429;29;20032;-76
2020/12/18 00:35:03;;;;;;;109.40;39.50;;;3.70;95.90;;;;;;4951251;29;20114;-77
2020/12/18 00:37:29;;;;;;;108.85;38.15;;;3.70;95.90;;;;;;4937246;29;20079;-77
2020/12/18 00:39:55;;;;;;;;;;;3.70;95.80;;;;;;4936186;29;20024;-76
2020/12/18 00:42:20;;;;;;;110.85;39.97;;;3.70;95.80;;;;;;4937115;29;19910;-76
2020/12/18 00:44:46;;;;;;;;;;;3.70;95.80;;;;;;4950939;28;20087;-77
2020/12/18 00:47:11;;;;;;;117.68;38.33;;;3.70;95.90;;;;;;4934362;29;19913;-76
2020/12/18 00:49:37;;;;;;;;;;;3.70;95.90;;;;;;4949490;29;20436;-76
2020/12/18 00:52:03;;;;;;;112.78;37.53;;;3.70;95.90;;;;;;4948790;29;19915;-76
2020/12/18 00:54:28;;;;;;;;;;;3.70;95.90;;;;;;4949335;29;20087;-76
2020/12/18 00:56:54;;;;;;;124.80;41.35;;;3.60;95.80;;;;;;4949298;29;20442;-76
2020/12/18 00:59:20;;;;;;;118.10;39.33;;;3.70;95.80;;;;;;4934949;29;20456;-77
2020/12/18 01:01:46;;;;;;;;;;;3.70;95.90;;;;;;4935516;29;20047;-77
2020/12/18 01:04:12;;;;;;;129.95;41.67;;;3.60;95.80;;;;;;4935864;29;20368;-76
2020/12/18 01:06:37;;;;;;;;;;;3.60;95.80;;;;;;4936952;29;20042;-78
2020/12/18 01:09:03;;;;;;;141.10;43.95;;;3.60;95.70;;;;;;4950529;29;19910;-77
2020/12/18 01:11:29;;;;;;;;;;;3.60;95.80;;;;;;4934880;29;20489;-77
2020/12/18 01:13:54;;;;;;;128.18;39.30;;;3.50;95.70;;;;;;4949013;29;19910;-77
2020/12/18 01:16:20;;;;;;;;;;;3.50;95.70;;;;;;4949167;29;20032;-77
2020/12/18 01:18:45;;;;;;;136.05;42.92;;;3.50;95.80;;;;;;4948327;28;19911;-76
2020/12/18 01:21:11;;;;;;;;;;;3.50;95.80;;;;;;4934912;29;20520;-77
2020/12/18 01:23:36;;;;;;;134.20;41.03;;;3.50;95.90;;;;;;4933152;29;19907;-77
2020/12/18 01:26:02;;;;;;;;;;;3.50;95.90;;;;;;4951985;29;20566;-78
2020/12/18 01:28:27;;;;;;;106.35;35.70;;;3.50;95.90;;;;;;4949355;29;19950;-78
2020/12/18 01:30:53;;;;;;;;;;;3.60;96.00;;;;;;4952593;29;20047;-77
2020/12/18 01:33:19;;;;;;;118.28;38.00;;;3.60;96.00;;;;;;4938172;29;19911;-78
2020/12/18 01:35:44;;;;;;;;;;;3.60;96.00;;;;;;4948656;29;20040;-77
2020/12/18 01:38:10;;;;;;;127.80;39.80;;;3.60;96.00;;;;;;4932994;29;19911;-76
2020/12/18 01:40:35;;;;;;;;;;;3.60;96.00;;;;;;4947971;29;20571;-78
2020/12/18 01:43:02;;;;;;;115.20;38.53;;;3.70;96.00;;;;;;4932791;29;19917;-77
2020/12/18 01:45:28;;;;;;;100.60;33.78;;;3.70;96.30;;;;;;4948019;29;20134;-77
2020/12/18 01:47:53;;;;;;;;;;;3.70;96.00;;;;;;4935174;29;20151;-77
2020/12/18 01:50:19;;;;;;;118.75;36.85;;;3.70;96.00;;;;;;4947258;29;20404;-77
2020/12/18 01:52:45;;;;;;;;;;;3.70;96.00;;;;;;4947625;29;20030;-76
2020/12/18 01:55:11;;;;;;;134.75;42.88;;;3.60;95.90;;;;;;4953727;29;19915;-82
2020/12/18 01:57:38;;;;;;;113.40;37.67;;;3.70;96.00;;;;;;4935628;29;20039;-77
2020/12/18 02:00:06;;;;;;;99.80;36.03;;;3.70;96.00;;;;;;4947284;29;20039;-77
2020/12/18 02:02:32;;;;;;;109.30;39.38;;;3.70;96.30;;;;;;4933333;29;20043;-77
2020/12/18 02:04:58;;;;;;;;;;;3.70;95.90;;;;;;4934406;29;20043;-77
2020/12/18 02:07:26;;;;;;;98.60;34.80;;;3.70;96.00;;;;;;4933431;29;19918;-77
2020/12/18 02:09:52;;;;;;;103.53;38.92;;;3.70;96.00;;;;;;4950551;29;20039;-77
2020/12/18 02:12:18;;;;;;;;;;;3.70;96.00;;;;;;4934549;29;20042;-77
2020/12/18 02:14:47;;;;;;;109.65;39.60;;;3.70;95.90;;;;;;4934303;29;19915;-77
2020/12/18 02:17:14;;;;;;;90.63;32.30;;;3.70;95.90;;;;;;4949348;29;20039;-76
2020/12/18 02:19:41;;;;;;;89.57;33.63;;;3.70;95.90;;;;;;4952215;29;20567;-78
2020/12/18 02:22:16;;;;;;;100.90;36.67;;;3.70;95.90;;;;;;4934606;29;20031;-77
2020/12/18 02:25:09;;;;;;;97.47;36.95;;;3.70;96.00;;;;;;4934544;29;20031;-77
2020/12/18 02:27:36;;;;;;;89.63;35.03;;;3.70;95.90;;;;;;4933219;29;20587;-78
2020/12/18 02:30:03;;;;;;;109.88;41.42;;;3.70;95.90;;;;;;4949627;28;20032;-77
2020/12/18 02:32:29;;;;;;;107.45;39.13;;;3.70;95.90;;;;;;4934639;29;20051;-77
2020/12/18 02:34:54;;;;;;;;;;;3.70;95.90;;;;;;4935455;29;20032;-76
2020/12/18 02:37:20;;;;;;;99.60;37.03;;;3.70;95.90;;;;;;4949339;29;19918;-76
2020/12/18 02:39:46;;;;;;;;;;;3.70;95.90;;;;;;4935115;29;20122;-77
2020/12/18 02:42:11;;;;;;;104.95;38.80;;;3.70;95.90;;;;;;4934589;29;19914;-76
2020/12/18 02:44:37;;;;;;;;;;;3.70;95.90;;;;;;4951651;28;20036;-77
2020/12/18 02:47:02;;;;;;;98.72;37.60;;;3.70;95.80;;;;;;4934028;29;19915;-76
2020/12/18 02:49:28;;;;;;;;;;;3.70;95.80;;;;;;4932351;29;20517;-76
2020/12/18 02:51:54;;;;;;;101.00;36.10;;;3.70;95.90;;;;;;4933072;29;19958;-77
2020/12/18 02:54:20;;;;;;;117.70;41.72;;;3.70;95.90;;;;;;4948046;29;20031;-77
2020/12/18 02:56:45;;;;;;;;;;;3.70;95.90;;;;;;4934010;29;20059;-77
2020/12/18 02:59:11;;;;;;;94.35;35.75;;;3.80;95.90;;;;;;4948892;29;19915;-76
2020/12/18 03:01:37;;;;;;;;;;;3.80;96.00;;;;;;4934369;29;20044;-77
2020/12/18 03:04:02;;;;;;;94.72;37.25;;;3.80;96.00;;;;;;4948360;29;20514;-77
2020/12/18 03:06:28;;;;;;;;;;;3.70;95.90;;;;;;4933194;29;20031;-77
2020/12/18 03:08:53;;;;;;;104.20;38.38;;;3.80;95.90;;;;;;4936684;29;19911;-77
2020/12/18 03:11:19;;;;;;;;;;;3.80;95.90;;;;;;4938427;29;20460;-77
2020/12/18 03:13:45;;;;;;;94.38;36.05;;;3.80;95.90;;;;;;4953278;29;19910;-77
2020/12/18 03:16:12;;;;;;;99.18;37.53;;;3.80;95.90;;;;;;4953675;28;20041;-78
2020/12/18 03:18:39;;;;;;;88.03;34.25;;;3.80;95.90;;;;;;4951892;29;20019;-75
2020/12/18 03:21:05;;;;;;;77.75;32.40;;;3.80;95.90;;;;;;4968516;28;20101;-77
2020/12/18 03:23:30;;;;;;;;;;;3.80;95.90;;;;;;4954623;28;20027;-76
2020/12/18 03:25:56;;;;;;;104.82;35.83;;;3.80;95.90;;;;;;4953156;28;19917;-76
2020/12/18 03:28:21;;;;;;;;;;;3.80;95.90;;;;;;4952612;29;20516;-76
2020/12/18 03:30:47;;;;;;;81.65;33.42;;;3.80;95.90;;;;;;4952526;28;19910;-78
2020/12/18 03:33:13;;;;;;;;;;;3.80;95.90;;;;;;4970487;28;20130;-76
2020/12/18 03:35:39;;;;;;;101.20;36.22;;;3.80;95.90;;;;;;4953123;28;19911;-78
2020/12/18 03:38:04;;;;;;;;;;;3.80;95.90;;;;;;4952877;28;20031;-77
2020/12/18 03:40:30;;;;;;;92.75;32.92;;;3.80;95.90;;;;;;4950675;28;19925;-77
2020/12/18 03:42:55;;;;;;;;;;;3.80;95.90;;;;;;4957261;28;20027;-77
2020/12/18 03:45:21;;;;;;;109.88;38.28;;;3.80;95.90;;;;;;4956430;28;19911;-77
2020/12/18 03:47:47;;;;;;;;;;;3.90;96.00;;;;;;4955223;28;20031;-77
2020/12/18 03:50:13;;;;;;;103.57;35.88;;;3.90;96.00;;;;;;4956427;28;19921;-76
2020/12/18 03:52:38;;;;;;;;;;;3.80;95.90;;;;;;4956533;29;20415;-77
2020/12/18 03:55:04;;;;;;;108.68;37.30;;;3.90;95.90;;;;;;4956185;29;19920;-79
2020/12/18 03:57:29;;;;;;;;;;;3.90;95.90;;;;;;4958001;29;20042;-76
2020/12/18 03:59:55;;;;;;;89.88;31.17;;;3.80;95.90;;;;;;4955991;29;19918;-77
2020/12/18 04:02:20;;;;;;;;;;;3.90;95.80;;;;;;4956035;29;20035;-76
2020/12/18 04:04:46;;;;;;;104.43;34.92;;;3.90;95.80;;;;;;4955558;29;19942;-77
2020/12/18 04:07:12;;;;;;;;;;;3.80;95.80;;;;;;4971343;28;20070;-77
2020/12/18 04:09:39;;;;;;;94.25;32.75;;;3.80;95.80;;;;;;4970015;28;20049;-77
2020/12/18 04:12:05;;;;;;;100.88;36.13;;;3.90;95.80;;;;;;4955219;29;20062;-77
2020/12/18 04:14:30;;;;;;;;;;;3.90;95.80;;;;;;4956403;29;20535;-77
2020/12/18 04:16:56;;;;;;;82.50;28.60;;;3.80;95.70;;;;;;4956260;29;19997;-77
2020/12/18 04:19:21;;;;;;;;;;;3.80;95.80;;;;;;4958653;29;20024;-78
2020/12/18 04:21:47;;;;;;;87.95;31.60;;;3.80;95.80;;;;;;4971290;28;19914;-77
2020/12/18 04:24:12;;;;;;;;;;;3.80;95.80;;;;;;4955003;29;20042;-77
2020/12/18 04:26:38;;;;;;;104.53;32.50;;;3.80;95.80;;;;;;4954962;29;20325;-77
2020/12/18 04:29:03;;;;;;;;;;;3.80;95.80;;;;;;4956041;29;20069;-77
2020/12/18 04:31:29;;;;;;;99.50;33.17;;;3.80;95.80;;;;;;4955968;29;19917;-77
2020/12/18 04:33:54;;;;;;;;;;;3.80;95.80;;;;;;4956335;29;20118;-76
2020/12/18 04:36:20;;;;;;;89.30;31.60;;;3.90;95.90;;;;;;4955377;29;19965;-76
2020/12/18 04:38:45;;;;;;;;;;;3.90;95.90;;;;;;4956162;29;20047;-77
2020/12/18 04:41:11;;;;;;;90.63;31.73;;;3.80;95.80;;;;;;4954786;29;20454;-76
2020/12/18 04:43:37;;;;;;;;;;;3.80;95.80;;;;;;4958125;28;20037;-77
2020/12/18 04:46:07;;;;;;;107.78;38.65;;;3.90;95.80;;;;;;4958254;28;20025;-77
2020/12/18 04:48:35;;;;;;;106.50;37.53;;;3.80;95.80;;;;;;4953467;29;20037;-77
2020/12/18 04:51:02;;;;;;;96.43;33.15;;;3.80;95.80;;;;;;4955549;28;20221;-77
2020/12/18 04:53:30;;;;;;;89.38;33.05;;;3.90;95.80;;;;;;4953000;28;20118;-77
2020/12/18 04:55:56;;;;;;;95.95;35.30;;;3.90;95.80;;;;;;4955442;28;20043;-77
2020/12/18 04:58:22;;;;;;;;;;;3.90;95.80;;;;;;4954341;28;20034;-76
2020/12/18 05:00:52;;;;;;;91.85;33.45;;;3.90;95.80;;;;;;4971379;28;20414;-78
2020/12/18 05:03:18;;;;;;;81.38;30.85;;;3.90;95.80;;;;;;4954118;29;20042;-76
2020/12/18 05:05:44;;;;;;;;;;;3.90;95.80;;;;;;4953900;29;20035;-76
2020/12/18 05:08:09;;;;;;;78.65;30.98;;;3.90;95.80;;;;;;4957137;29;20386;-77
2020/12/18 05:10:35;;;;;;;;;;;3.90;95.80;;;;;;4955182;29;20046;-77
2020/12/18 05:13:01;;;;;;;70.68;25.67;;;3.90;95.80;;;;;;4968744;28;19911;-77
2020/12/18 05:15:27;;;;;;;69.68;26.02;;;3.80;95.70;;;;;;4954460;28;20041;-77
2020/12/18 05:17:55;;;;;;;;;;;3.80;95.60;;;;;;4954877;29;20117;-77
2020/12/18 05:20:24;;;;;;;42.67;18.73;;;3.80;95.60;;;;;;4968581;28;19919;-76
2020/12/18 05:22:52;;;;;;;34.22;17.15;;;3.80;95.50;;;;;;4956130;28;20023;-77
2020/12/18 05:25:18;;;;;;;33.05;16.10;;;3.70;95.30;;;;;;4954259;28;20480;-76
2020/12/18 05:27:43;;;;;;;;;;;3.70;95.40;;;;;;4953016;29;20035;-76
2020/12/18 05:30:09;;;;;;;32.58;17.38;;;3.70;95.40;;;;;;4952899;29;19917;-77
2020/12/18 05:32:35;;;;;;;;;;;3.70;95.40;;;;;;4956533;29;20031;-78
2020/12/18 05:35:01;;;;;;;28.83;15.63;;;3.70;95.40;;;;;;4953949;28;19942;-76
2020/12/18 05:37:35;;;;;;;29.30;17.27;;;3.70;95.40;;;;;;4954256;28;20027;-77
2020/12/18 05:40:01;;;;;;;28.58;18.05;;;3.70;95.40;;;;;;4952707;29;20039;-76
2020/12/18 05:42:26;;;;;;;;;;;3.60;95.30;;;;;;4954788;28;20534;-77
2020/12/18 05:44:52;;;;;;;32.03;16.42;;;3.70;95.30;;;;;;4953685;29;20178;-76
2020/12/18 05:47:17;;;;;;;;;;;3.60;95.20;;;;;;4954017;29;20054;-77
2020/12/18 05:49:43;;;;;;;28.40;15.38;;;3.60;95.10;;;;;;4953996;29;19918;-76
2020/12/18 05:52:17;;;;;;;;;;;3.60;95.20;;;;;;4954286;29;20031;-77
2020/12/18 05:54:43;;;;;;;32.28;16.92;;;3.60;95.10;;;;;;4969075;28;19910;-77
2020/12/18 05:57:11;;;;;;;29.65;15.98;;;3.60;95.10;;;;;;4954517;29;20102;-77
2020/12/18 05:59:42;;;;;;;33.97;18.42;;;3.60;95.10;;;;;;4953633;28;20593;-76
2020/12/18 06:02:12;;;;;;;34.17;18.25;;;3.60;95.10;;;;;;4952741;29;20587;-77
2020/12/18 06:04:38;;;;;;;32.17;18.08;;;3.60;95.10;;;;;;4953863;28;20468;-77
2020/12/18 06:07:04;;;;;;;;;;;3.60;95.10;;;;;;4954027;29;20523;-77
2020/12/18 06:09:30;;;;;;;39.87;18.03;;;3.60;95.10;;;;;;4953726;28;19917;-78
2020/12/18 06:11:56;;;;;;;37.00;16.90;;;3.60;95.00;;;;;;4953025;28;20039;-77
2020/12/18 06:14:22;;;;;;;;;;;3.60;94.90;;;;;;4953017;29;20085;-77
2020/12/18 06:16:52;;;;;;;32.28;17.20;;;3.60;94.90;;;;;;4953481;29;20367;-77
2020/12/18 06:19:21;;;;;;;29.48;15.13;;;3.60;94.80;;;;;;4954478;29;20030;-78
2020/12/18 06:21:53;;;;;;;29.20;16.23;;;3.60;94.80;;;;;;4953524;28;20035;-76
2020/12/18 06:24:19;;;;;;;32.25;16.27;;;3.60;94.80;;;;;;4951971;29;20085;-75
2020/12/18 06:26:45;;;;;;;;;;;3.60;94.80;;;;;;4953813;28;20031;-76
2020/12/18 06:29:16;;;;;;;29.25;15.85;;;3.60;94.80;;;;;;4953366;28;20074;-77
2020/12/18 06:31:42;;;;;;;32.50;16.80;;;3.60;94.80;;;;;;4968363;28;20019;-76
2020/12/18 06:34:10;;;;;;;;;;;3.60;94.80;;;;;;4952232;29;20042;-77
2020/12/18 06:36:48;;;;;;;32.80;16.13;;;3.60;94.70;;;;;;4968013;28;19906;-76
2020/12/18 06:39:33;;;;;;;31.65;16.80;;;3.50;94.70;;;;;;4967613;28;20515;-76
2020/12/18 06:42:16;;;;;;;47.10;22.48;;;3.50;94.60;;;;;;4952925;29;20046;-78
2020/12/18 06:44:53;;;;;;;36.28;18.70;;;3.60;94.70;;;;;;4957053;28;20519;-77
2020/12/18 06:47:24;;;;;;;34.92;17.52;;;3.60;94.70;;;;;;4955463;28;20059;-76
2020/12/18 06:49:56;;;;;;;41.17;19.90;;;3.60;94.60;;;;;;4952368;29;20023;-76
2020/12/18 06:52:45;;;;;;;27.80;16.55;;;3.60;94.60;;;;;;4952461;29;20078;-76
2020/12/18 06:55:27;;;;;;;30.48;15.75;;;3.60;94.60;;;;;;4951462;29;20051;-75
2020/12/18 06:58:12;;;;;;;27.35;15.20;;;3.60;94.50;;;;;;4968293;28;20027;-77
2020/12/18 07:00:38;;;;;;;27.83;15.05;;;3.60;94.40;;;;;;4952455;28;20389;-76
2020/12/18 07:03:04;;;;;;;43.53;19.27;;;3.60;94.30;;;;;;4968191;28;20027;-77
2020/12/18 07:05:37;;;;;;;47.00;21.63;;;3.60;94.40;;;;;;4954057;28;20460;-76
2020/12/18 07:08:07;;;;;;;53.47;22.02;;;3.60;94.30;;;;;;4955733;28;20037;-76
2020/12/18 07:10:39;;;;;;;36.17;16.05;;;3.70;94.30;;;;;;4952229;29;20385;-76
2020/12/18 07:13:07;;;;;;;42.70;19.38;;;3.70;94.20;;;;;;4952193;29;20039;-76
2020/12/18 07:15:45;;;;;;;34.00;17.65;;;3.70;94.20;;;;;;4952619;28;20484;-77
2020/12/18 07:18:33;;;;;;;27.13;14.15;;;3.70;94.20;;;;;;4967455;28;20029;-76
2020/12/18 07:21:08;;;;;;;24.05;13.68;;;3.70;94.10;;;;;;4951615;29;20031;-79
2020/12/18 07:23:37;;;;;;;25.95;15.18;;;3.80;94.20;;;;;;4951456;29;20122;-76
2020/12/18 07:26:04;;;;;;;24.25;15.15;;;3.80;94.20;;;;;;4951873;29;20034;-77
2020/12/18 07:28:31;;;;;;;26.10;15.95;;;3.70;94.20;;;;;;4952834;28;20748;-78
2020/12/18 07:30:58;;;;;;;27.00;16.33;;;3.80;94.10;;;;;;4955207;29;20090;-76
2020/12/18 07:33:24;;;;;;;28.48;15.48;;;3.80;94.00;;;;;;4967080;28;20058;-75
2020/12/18 07:35:55;;;;;;;23.65;14.27;;;3.80;94.00;;;;;;4952819;28;20083;-77
2020/12/18 07:38:34;;;;;;;24.83;14.45;;;3.80;94.00;;;;;;4952696;28;20031;-77
2020/12/18 07:41:06;;;;;;;24.33;13.82;;;3.90;94.10;;;;;;4951489;28;20416;-77
2020/12/18 07:43:34;;;;;;;32.95;17.02;;;3.90;94.00;;;;;;4952310;28;20445;-77
2020/12/18 07:46:07;;;;;;;28.23;16.60;;;3.90;94.00;;;;;;4952677;28;20119;-77
2020/12/18 07:48:37;;;;;;;28.73;15.88;;;3.90;93.90;;;;;;4952527;28;20114;-76
2020/12/18 07:51:18;;;;;;;29.08;15.40;;;3.90;93.80;;;;;;4952774;28;20685;-76
2020/12/18 07:53:45;;;;;;;28.88;15.70;;;3.90;93.60;;;;;;4952259;29;20039;-78
2020/12/18 07:56:13;;;;;;;23.30;14.32;;;4.00;93.60;;;;;;4952158;29;20082;-77
2020/12/18 07:58:48;;;;;;;30.02;17.50;;;4.00;93.60;;;;;;4952184;28;20035;-77
2020/12/18 08:01:17;;;;;;;29.05;17.13;;;4.00;93.70;;;;;;4952361;29;20074;-77
2020/12/18 08:04:04;;;;;;;27.92;17.63;;;4.00;93.60;;;;;;4951815;29;20043;-76
2020/12/18 08:06:31;;;;;;;24.52;15.30;;;4.00;93.60;;;;;;4951331;28;20492;-76
2020/12/18 08:09:16;;;;;;;26.98;15.13;;;4.10;93.60;;;;;;4951508;29;20609;-77
2020/12/18 08:11:45;;;;;;;26.42;14.60;;;4.20;93.60;;;;;;4953157;28;20066;-77
2020/12/18 08:14:12;;;;;;;24.83;14.15;;;4.20;93.50;;;;;;4953975;28;20078;-76
2020/12/18 08:16:38;;;;;;;26.17;15.05;;;4.20;93.40;;;;;;4953543;28;20035;-77
2020/12/18 08:19:05;;;;;;;;;;;4.20;93.40;;;;;;4953838;29;20042;-77
2020/12/18 08:21:35;;;;;;;21.83;13.60;;;4.30;93.30;;;;;;4951856;29;20401;-76
2020/12/18 08:24:18;;;;;;;20.58;13.43;;;4.30;93.30;;;;;;4952359;29;20086;-77
2020/12/18 08:27:01;;;;;;;21.40;13.38;;;4.30;93.20;;;;;;4966527;28;20098;-77
2020/12/18 08:29:31;;;;;;;22.70;13.00;;;4.40;93.10;;;;;;4954654;28;20024;-77
2020/12/18 08:31:58;;;;;;;23.02;12.82;;;4.40;93.00;;;;;;4955646;28;20398;-77
2020/12/18 08:34:27;;;;;;;20.00;12.43;;;4.40;92.90;;;;;;4955793;28;20027;-76
2020/12/18 08:36:53;;;;;;;20.63;13.45;;;4.40;92.90;;;;;;4955952;29;20027;-76
2020/12/18 08:39:19;;;;;;;26.48;16.92;;;4.50;92.90;;;;;;4956157;28;20684;-77
2020/12/18 08:41:46;;;;;;;;;;;4.60;92.90;;;;;;4960256;29;20035;-76
2020/12/18 08:44:14;;;;;;;24.58;15.40;;;4.60;92.80;;;;;;4958533;28;19929;-79
2020/12/18 08:46:40;;;;;;;25.55;15.57;;;4.60;92.80;;;;;;4972315;28;20023;-77
2020/12/18 08:49:25;;;;;;;;;;;4.60;92.80;;;;;;4954397;29;20032;-76
2020/12/18 08:51:52;;;;;;;25.63;13.50;;;4.60;92.40;;;;;;4955916;28;19918;-77
2020/12/18 08:54:34;;;;;;;21.83;13.32;;;4.60;92.50;;;;;;4955409;28;20031;-77
2020/12/18 08:57:22;;;;;;;35.10;22.50;;;4.70;92.50;;;;;;4954323;29;20043;-75
2020/12/18 08:59:57;;;;;;;20.05;12.73;;;4.70;92.40;;;;;;4953641;29;20035;-77
2020/12/18 09:02:24;;;;;;;25.17;14.00;;;4.70;92.30;;;;;;4970044;28;20036;-76
2020/12/18 09:05:11;;;;;;;22.98;14.40;;;4.70;92.20;;;;;;4956461;28;20358;-77
2020/12/18 09:07:50;;;;;;;21.92;12.98;;;4.70;92.00;;;;;;4969087;28;20031;-77
2020/12/18 09:10:44;;;;;;;28.33;15.55;;;4.70;92.20;;;;;;4970331;28;20035;-77
2020/12/18 09:13:17;;;;;;;23.58;14.55;;;4.70;92.20;;;;;;4954584;28;20019;-77
2020/12/18 09:15:49;;;;;;;23.10;14.07;;;4.70;92.30;;;;;;4955110;28;20539;-76
2020/12/18 09:18:25;;;;;;;20.38;12.65;;;4.70;92.20;;;;;;4970011;28;20027;-76
2020/12/18 09:20:55;;;;;;;26.17;14.45;;;4.70;92.10;;;;;;4953107;29;20476;-77
2020/12/18 09:23:32;;;;;;;27.52;15.57;;;4.70;92.10;;;;;;4953352;29;20469;-75
2020/12/18 09:25:59;;;;;;;39.35;21.83;;;4.70;91.90;;;;;;4954748;28;20035;-76
2020/12/18 09:28:25;;;;;;;103.68;53.75;;;4.80;91.90;;;;;;4956149;28;20484;-77
2020/12/18 09:30:52;;;;;;;;;;;4.80;91.90;;;;;;4954812;28;20535;-75
2020/12/18 09:33:24;;;;;;;50.47;29.98;;;4.80;91.90;;;;;;4970028;28;19911;-76
2020/12/18 09:35:51;;;;;;;50.75;32.47;;;4.80;91.80;;;;;;4954482;28;20441;-76
2020/12/18 09:38:31;;;;;;;43.72;27.00;;;4.80;91.50;;;;;;4954681;28;20031;-77
2020/12/18 09:41:00;;;;;;;32.33;19.17;;;4.80;91.50;;;;;;4952937;29;20127;-77
2020/12/18 09:43:26;;;;;;;28.50;16.80;;;4.70;91.70;;;;;;4954442;28;20496;-76
2020/12/18 09:45:53;;;;;;;23.65;15.32;;;4.70;91.70;;;;;;4952896;29;20031;-76
2020/12/18 09:48:19;;;;;;;34.78;17.42;;;4.70;91.80;;;;;;4952316;29;20050;-76
2020/12/18 09:50:45;;;;;;;25.05;15.95;;;4.70;91.40;;;;;;4953555;29;20435;-76
2020/12/18 09:53:11;;;;;;;;;;;4.80;91.70;;;;;;4954033;28;20027;-77
2020/12/18 09:55:36;;;;;;;31.92;18.52;;;4.80;91.60;;;;;;4953855;28;19914;-76
2020/12/18 09:58:03;;;;;;;;;;;4.90;91.60;;;;;;4953382;29;20062;-77
2020/12/18 10:00:29;;;;;;;35.78;19.98;;;4.80;91.20;;;;;;4968132;28;19915;-76
2020/12/18 10:02:55;;;;;;;;;;;4.90;91.60;;;;;;4952365;29;20030;-76
2020/12/18 10:05:20;;;;;;;32.45;19.55;;;5.00;91.70;;;;;;4953632;28;19906;-77
2020/12/18 10:07:46;;;;;;;;;;;5.00;91.60;;;;;;4952397;29;20023;-76
2020/12/18 10:10:11;;;;;;;31.48;19.88;;;5.00;91.80;;;;;;4951873;29;19915;-77
2020/12/18 10:12:37;;;;;;;;;;;5.10;91.60;;;;;;4953427;29;20030;-76
2020/12/18 10:15:04;;;;;;;42.92;23.77;;;5.00;91.50;;;;;;4953112;29;19915;-77
2020/12/18 10:17:29;;;;;;;35.97;22.58;;;5.00;91.20;;;;;;4953727;28;20106;-78
2020/12/18 10:19:55;;;;;;;;;;;4.90;91.10;;;;;;4968678;28;20475;-78
2020/12/18 10:22:20;;;;;;;32.92;19.45;;;4.90;91.10;;;;;;4967541;28;19915;-76
2020/12/18 10:24:46;;;;;;;;;;;4.80;91.10;;;;;;4953298;29;20039;-77
2020/12/18 10:27:12;;;;;;;40.10;23.50;;;4.80;91.40;;;;;;4967217;28;19918;-76
2020/12/18 10:29:38;;;;;;;33.58;20.10;;;4.70;91.50;;;;;;4950944;29;20412;-76
2020/12/18 10:32:04;;;;;;;41.28;21.50;;;4.70;91.70;;;;;;4952692;28;20043;-76
2020/12/18 10:34:30;;;;;;;;;;;4.70;91.80;;;;;;4951604;29;20082;-76
2020/12/18 10:36:56;;;;;;;37.00;19.88;;;4.70;91.80;;;;;;4952998;28;20295;-76
2020/12/18 10:39:25;;;;;;;;;;;4.80;91.70;;;;;;4952908;28;20028;-76
2020/12/18 10:41:51;;;;;;;35.30;20.27;;;4.80;91.60;;;;;;4968634;28;19997;-77
2020/12/18 10:44:17;;;;;;;32.08;19.50;;;4.80;91.30;;;;;;4954601;28;20110;-77
2020/12/18 10:46:43;;;;;;;;;;;4.80;91.40;;;;;;4951819;29;20130;-76
2020/12/18 10:49:09;;;;;;;32.42;19.52;;;4.80;91.40;;;;;;4967113;28;19906;-77
2020/12/18 10:51:38;;;;;;;;;;;4.90;91.40;;;;;;4950630;28;20114;-76
2020/12/18 10:54:04;;;;;;;29.75;17.70;;;4.90;91.30;;;;;;4966469;28;19920;-76
2020/12/18 10:56:30;;;;;;;31.73;15.95;;;4.90;91.10;;;;;;4950932;29;20066;-77
2020/12/18 10:58:55;;;;;;;;;;;5.00;91.00;;;;;;4953032;29;20024;-77
2020/12/18 11:01:21;;;;;;;28.35;16.38;;;5.00;90.90;;;;;;4952128;29;20713;-76
2020/12/18 11:03:46;;;;;;;;;;;5.00;90.90;;;;;;4951831;29;20078;-77
2020/12/18 11:06:12;;;;;;;35.22;21.17;;;5.10;91.00;;;;;;4951720;28;19961;-77
2020/12/18 11:08:37;;;;;;;;;;;5.10;90.90;;;;;;4952379;29;20050;-76
2020/12/18 11:11:03;;;;;;;28.08;16.23;;;5.10;90.90;;;;;;4952386;29;20378;-75
2020/12/18 11:13:29;;;;;;;;;;;5.10;90.70;;;;;;4967832;28;20031;-76
2020/12/18 11:15:54;;;;;;;27.00;16.63;;;5.10;90.70;;;;;;4952603;28;19906;-77
2020/12/18 11:18:20;;;;;;;;;;;5.20;90.70;;;;;;4967583;28;20038;-76
2020/12/18 11:20:45;;;;;;;27.40;16.00;;;5.20;90.80;;;;;;4951482;29;19914;-77
2020/12/18 11:23:11;;;;;;;;;;;5.20;90.80;;;;;;4951855;29;20539;-77
2020/12/18 11:25:36;;;;;;;23.45;13.60;;;5.20;90.70;;;;;;4953148;29;19907;-77
2020/12/18 11:28:02;;;;;;;;;;;5.20;90.60;;;;;;4953281;29;20068;-76
2020/12/18 11:30:27;;;;;;;23.85;13.35;;;5.20;90.40;;;;;;4952139;28;20486;-76
2020/12/18 11:32:53;;;;;;;;;;;5.20;90.70;;;;;;4953293;29;20043;-76
2020/12/18 11:35:18;;;;;;;20.55;12.48;;;5.20;90.60;;;;;;4952937;29;19910;-77
2020/12/18 11:37:44;;;;;;;;;;;5.20;90.80;;;;;;4953421;29;20097;-76
2020/12/18 11:40:09;;;;;;;20.30;12.23;;;5.20;90.80;;;;;;4967589;28;20405;-76
2020/12/18 11:42:35;;;;;;;;;;;5.10;91.10;;;;;;4953162;28;20031;-76
2020/12/18 11:45:03;;;;;;;22.27;14.15;;;5.10;90.80;;;;;;4951357;29;20330;-76
2020/12/18 11:47:28;;;;;;;24.45;13.70;;;5.10;90.90;;;;;;4951012;28;20030;-76
2020/12/18 11:49:54;;;;;;;;;;;5.10;91.00;;;;;;4967483;28;20027;-76
2020/12/18 11:52:20;;;;;;;22.20;11.48;;;5.20;91.10;;;;;;4967083;28;19952;-75
2020/12/18 11:54:45;;;;;;;;;;;5.10;90.80;;;;;;4951810;29;20035;-76
2020/12/18 11:57:11;;;;;;;18.70;10.93;;;5.10;90.90;;;;;;4950615;29;20402;-76
2020/12/18 11:59:36;;;;;;;;;;;5.00;90.90;;;;;;4950910;29;20031;-76
2020/12/18 12:02:02;;;;;;;18.40;10.75;;;5.00;90.90;;;;;;4967580;28;19914;-77
2020/12/18 12:04:27;;;;;;;;;;;5.00;91.00;;;;;;4955639;29;20502;-76
2020/12/18 12:06:53;;;;;;;19.88;10.50;;;5.00;91.10;;;;;;4955643;29;19910;-76
2020/12/18 12:09:20;;;;;;;;;;;5.00;91.00;;;;;;4955523;28;20023;-77
2020/12/18 12:11:45;;;;;;;14.43;9.60;;;5.00;90.90;;;;;;4969794;28;20295;-76
2020/12/18 12:14:11;;;;;;;;;;;5.00;90.90;;;;;;4956082;29;20266;-76
2020/12/18 12:16:37;;;;;;;17.02;10.20;;;5.00;91.00;;;;;;4955295;28;19906;-76
2020/12/18 12:19:04;;;;;;;20.35;9.80;;;5.10;91.00;;;;;;4953746;29;20040;-76
2020/12/18 12:21:37;;;;;;;25.23;11.90;;;5.10;91.00;;;;;;4954868;29;20179;-76
2020/12/18 12:24:03;;;;;;;17.95;9.82;;;5.10;91.10;;;;;;4955169;28;20106;-76
2020/12/18 12:26:29;;;;;;;19.52;10.98;;;5.10;90.90;;;;;;4955082;28;20035;-76
2020/12/18 12:28:55;;;;;;;;;;;5.10;90.80;;;;;;4954338;28;20027;-76
2020/12/18 12:31:22;;;;;;;17.88;10.13;;;5.10;90.70;;;;;;4969985;28;19910;-76
2020/12/18 12:33:48;;;;;;;18.92;10.23;;;5.10;90.80;;;;;;4954832;28;20054;-77
2020/12/18 12:36:23;;;;;;;;;;;5.10;90.60;;;;;;4954925;28;20039;-76
2020/12/18 12:38:49;;;;;;;17.45;10.10;;;5.10;90.30;;;;;;4969967;28;19906;-76
2020/12/18 12:41:16;;;;;;;;;;;5.10;90.50;;;;;;4954847;28;20045;-76
2020/12/18 12:43:42;;;;;;;13.98;8.77;;;5.10;90.40;;;;;;4972068;28;20402;-78
2020/12/18 12:46:08;;;;;;;;;;;5.20;90.30;;;;;;4970688;28;20031;-76
2020/12/18 12:48:33;;;;;;;15.18;9.00;;;5.10;90.00;;;;;;4953525;29;19914;-76
2020/12/18 12:50:59;;;;;;;;;;;5.20;90.20;;;;;;4970785;28;20019;-76
2020/12/18 12:53:25;;;;;;;14.00;7.93;;;5.20;90.20;;;;;;4954379;29;19910;-75
2020/12/18 12:55:50;;;;;;;;;;;5.20;90.30;;;;;;4954606;29;20043;-76
2020/12/18 12:58:19;;;;;;;14.90;8.82;;;5.20;90.10;;;;;;4953144;29;19915;-75
2020/12/18 13:00:46;;;;;;;16.38;10.05;;;5.20;90.00;;;;;;4953676;29;20066;-76
2020/12/18 13:03:12;;;;;;;15.25;9.52;;;5.20;90.00;;;;;;4953765;29;20098;-76
2020/12/18 13:05:42;;;;;;;16.45;9.35;;;5.20;90.20;;;;;;4954465;28;20027;-76
2020/12/18 13:08:07;;;;;;;14.77;9.55;;;5.20;90.20;;;;;;4955004;28;20024;-75
2020/12/18 13:10:37;;;;;;;;;;;5.20;90.30;;;;;;4955637;29;20464;-77